createdAt,value
2023-01-08T00:01:25.846Z,20.20
2023-01-08T00:03:54.548Z,21.92
2023-01-08T00:06:25.505Z,20.20
2023-01-08T00:08:53.990Z,18.70
2023-01-08T00:11:22.234Z,22.75
2023-01-08T00:13:50.457Z,23.58
2023-01-08T00:16:20.291Z,21.45
2023-01-08T00:18:48.869Z,22.48
2023-01-08T00:21:17.533Z,21.55
2023-01-08T00:23:48.224Z,16.55
2023-01-08T00:26:16.801Z,19.95
2023-01-08T00:28:44.897Z,19.02
2023-01-08T00:31:14.557Z,19.02
2023-01-08T00:33:43.728Z,22.25
2023-01-08T00:36:14.428Z,24.95
2023-01-08T00:38:43.308Z,18.70
2023-01-08T00:41:14.126Z,23.83
2023-01-08T00:43:42.795Z,19.92
2023-01-08T00:46:11.424Z,22.75
2023-01-08T00:48:40.186Z,23.80
2023-01-08T00:51:10.104Z,23.60
2023-01-08T00:53:39.378Z,17.52
2023-01-08T00:56:10.197Z,20.60
2023-01-08T00:58:40.198Z,23.40
2023-01-08T01:01:13.619Z,26.63
2023-01-08T01:03:42.844Z,25.65
2023-01-08T01:06:13.175Z,20.85
2023-01-08T01:08:41.843Z,23.25
2023-01-08T01:11:10.948Z,22.30
2023-01-08T01:13:40.674Z,20.40
2023-01-08T01:16:10.084Z,24.13
2023-01-08T01:18:38.540Z,23.65
2023-01-08T01:21:12.373Z,24.63
2023-01-08T01:23:41.173Z,20.33
2023-01-08T01:26:17.189Z,22.20
2023-01-08T01:28:48.683Z,25.02
2023-01-08T01:31:17.951Z,20.63
2023-01-08T01:33:47.028Z,25.38
2023-01-08T01:36:17.558Z,22.17
2023-01-08T01:38:46.214Z,22.35
2023-01-08T01:41:23.689Z,21.38
2023-01-08T01:43:54.570Z,24.67
2023-01-08T01:46:30.673Z,26.40
2023-01-08T01:49:03.310Z,21.55
2023-01-08T01:51:35.849Z,25.17
2023-01-08T01:54:09.203Z,24.90
2023-01-08T01:56:37.678Z,23.80
2023-01-08T01:59:08.731Z,23.40
2023-01-08T02:01:37.975Z,21.67
2023-01-08T02:04:07.424Z,28.90
2023-01-08T02:06:39.263Z,25.98
2023-01-08T02:09:19.048Z,21.55
2023-01-08T02:12:10.473Z,25.52
2023-01-08T02:14:48.854Z,25.27
2023-01-08T02:17:23.709Z,22.73
2023-01-08T02:19:57.192Z,27.75
2023-01-08T02:22:36.594Z,22.42
2023-01-08T02:25:13.796Z,23.80
2023-01-08T02:27:46.955Z,21.80
2023-01-08T02:30:15.638Z,24.33
2023-01-08T02:32:44.094Z,23.60
2023-01-08T02:35:13.448Z,25.20
2023-01-08T02:37:43.454Z,20.52
2023-01-08T02:40:21.043Z,22.30
2023-01-08T02:43:32.855Z,23.95
2023-01-08T02:50:10.842Z,27.80
2023-01-08T02:52:48.631Z,25.65
2023-01-08T02:55:19.127Z,29.13
2023-01-08T02:57:48.198Z,29.15
2023-01-08T03:00:17.504Z,21.33
2023-01-08T03:02:46.374Z,26.90
2023-01-08T03:05:21.962Z,27.58
2023-01-08T03:07:51.980Z,26.92
2023-01-08T03:10:23.474Z,25.85
2023-01-08T03:12:55.357Z,25.98
2023-01-08T03:15:30.547Z,22.65
2023-01-08T03:18:03.976Z,26.88
2023-01-08T03:20:34.871Z,23.65
2023-01-08T03:23:07.642Z,23.10
2023-01-08T03:25:39.372Z,26.83
2023-01-08T03:28:13.884Z,27.10
2023-01-08T03:30:44.088Z,27.75
2023-01-08T03:33:14.426Z,32.30
2023-01-08T03:35:45.225Z,29.42
2023-01-08T03:38:20.471Z,28.80
2023-01-08T03:40:52.786Z,26.67
2023-01-08T03:43:21.246Z,35.03
2023-01-08T03:45:53.074Z,30.65
2023-01-08T03:48:22.212Z,28.60
2023-01-08T03:50:50.545Z,28.75
2023-01-08T03:53:20.477Z,29.95
2023-01-08T03:55:48.756Z,27.80
2023-01-08T03:58:17.035Z,32.35
2023-01-08T04:00:45.159Z,31.05
2023-01-08T04:03:13.592Z,27.23
2023-01-08T04:05:41.607Z,27.80
2023-01-08T04:08:09.652Z,31.63
2023-01-08T04:10:39.089Z,28.70
2023-01-08T04:13:07.255Z,29.15
2023-01-08T04:15:35.782Z,28.00
2023-01-08T04:18:03.920Z,25.77
2023-01-08T04:20:31.991Z,29.92
2023-01-08T04:23:00.015Z,31.85
2023-01-08T04:25:28.457Z,29.88
2023-01-08T04:27:57.918Z,29.48
2023-01-08T04:30:25.977Z,29.17
2023-01-08T04:32:54.164Z,33.42
2023-01-08T04:35:22.331Z,33.10
2023-01-08T04:37:51.150Z,36.97
2023-01-08T04:40:19.494Z,34.28
2023-01-08T04:42:47.454Z,32.45
2023-01-08T04:45:17.271Z,34.70
2023-01-08T04:47:45.378Z,31.23
2023-01-08T04:50:13.736Z,35.00
2023-01-08T04:52:41.758Z,36.13
2023-01-08T04:55:10.189Z,37.05
2023-01-08T04:57:38.426Z,35.35
2023-01-08T05:00:08.379Z,33.00
2023-01-08T05:02:39.845Z,30.75
2023-01-08T05:05:09.180Z,34.88
2023-01-08T05:07:37.440Z,36.05
2023-01-08T05:10:06.249Z,35.22
2023-01-08T05:12:34.252Z,36.08
2023-01-08T05:15:02.519Z,37.22
2023-01-08T05:17:30.585Z,36.03
2023-01-08T05:20:01.383Z,35.90
2023-01-08T05:22:29.513Z,35.15
2023-01-08T05:24:57.598Z,34.85
2023-01-08T05:27:25.811Z,38.75
2023-01-08T05:29:53.772Z,41.60
2023-01-08T05:32:21.929Z,36.17
2023-01-08T05:34:50.494Z,35.90
2023-01-08T05:37:19.959Z,43.78
2023-01-08T05:39:48.012Z,41.08
2023-01-08T05:42:16.396Z,36.40
2023-01-08T05:44:44.947Z,36.10
2023-01-08T05:47:12.938Z,40.55
2023-01-08T05:49:41.232Z,39.55
2023-01-08T05:52:09.290Z,33.78
2023-01-08T05:54:39.103Z,38.05
2023-01-08T05:57:07.072Z,38.92
2023-01-08T05:59:35.116Z,36.95
2023-01-08T06:02:03.651Z,32.25
2023-01-08T06:04:32.052Z,36.80
2023-01-08T06:07:00.464Z,35.90
2023-01-08T06:09:28.858Z,34.83
2023-01-08T06:11:58.706Z,38.22
2023-01-08T06:14:26.901Z,36.90
2023-01-08T06:16:54.940Z,36.17
2023-01-08T06:19:23.885Z,40.90
2023-01-08T06:21:51.886Z,39.35
2023-01-08T06:24:19.955Z,34.20
2023-01-08T06:26:48.329Z,37.50
2023-01-08T06:29:17.874Z,40.90
2023-01-08T06:31:46.245Z,32.08
2023-01-08T06:34:14.706Z,38.03
2023-01-08T06:36:43.104Z,41.00
2023-01-08T06:39:11.298Z,36.75
2023-01-08T06:41:39.656Z,36.97
2023-01-08T06:44:08.041Z,33.45
2023-01-08T06:46:40.458Z,40.08
2023-01-08T06:49:09.226Z,34.47
2023-01-08T06:51:38.210Z,31.75
2023-01-08T06:54:06.987Z,34.60
2023-01-08T06:56:48.863Z,39.53
2023-01-08T06:59:21.245Z,31.02
2023-01-08T07:01:51.451Z,37.00
2023-01-08T07:04:20.478Z,37.47
2023-01-08T07:06:48.640Z,37.70
2023-01-08T07:09:17.311Z,44.85
2023-01-08T07:11:45.768Z,32.72
2023-01-08T07:14:13.914Z,41.50
2023-01-08T07:16:42.317Z,34.28
2023-01-08T07:19:12.629Z,37.00
2023-01-08T07:21:40.840Z,41.75
2023-01-08T07:24:09.380Z,42.58
2023-01-08T07:26:39.741Z,39.67
2023-01-08T07:29:08.397Z,40.10
2023-01-08T07:31:36.831Z,38.10
2023-01-08T07:34:05.415Z,37.85
2023-01-08T07:36:35.259Z,38.95
2023-01-08T07:39:03.906Z,31.40
2023-01-08T07:41:32.285Z,35.97
2023-01-08T07:44:00.891Z,38.60
2023-01-08T07:46:29.061Z,30.45
2023-01-08T07:48:58.137Z,31.13
2023-01-08T07:51:26.559Z,34.58
2023-01-08T07:53:56.807Z,35.20
2023-01-08T07:56:25.985Z,31.30
2023-01-08T07:58:54.710Z,32.92
2023-01-08T08:01:23.163Z,32.33
2023-01-08T08:03:51.948Z,34.40
2023-01-08T08:06:20.431Z,33.72
2023-01-08T08:08:48.830Z,31.02
2023-01-08T08:11:18.278Z,33.78
2023-01-08T08:13:47.679Z,32.22
2023-01-08T08:16:16.036Z,30.80
2023-01-08T08:18:44.459Z,27.45
2023-01-08T08:21:13.057Z,29.40
2023-01-08T08:23:41.838Z,28.83
2023-01-08T08:26:10.736Z,25.95
2023-01-08T08:28:40.615Z,25.08
2023-01-08T08:31:08.831Z,21.67
2023-01-08T08:33:37.711Z,23.65
2023-01-08T08:36:07.244Z,23.50
2023-01-08T08:38:36.119Z,21.30
2023-01-08T08:41:04.485Z,21.85
2023-01-08T08:43:32.960Z,20.63
2023-01-08T08:46:02.913Z,23.73
2023-01-08T08:48:31.257Z,22.13
2023-01-08T08:50:59.408Z,21.50
2023-01-08T08:53:28.099Z,24.08
2023-01-08T08:55:59.199Z,17.42
2023-01-08T08:58:28.040Z,22.63
2023-01-08T09:00:56.856Z,21.75
2023-01-08T09:03:26.763Z,22.92
2023-01-08T09:05:55.139Z,31.13
2023-01-08T09:08:23.516Z,22.55
2023-01-08T09:10:52.695Z,23.95
2023-01-08T09:13:21.170Z,24.50
2023-01-08T09:15:49.624Z,24.80
2023-01-08T09:18:18.306Z,22.50
2023-01-08T09:20:48.534Z,24.92
2023-01-08T09:23:17.110Z,24.05
2023-01-08T09:25:45.205Z,27.92
2023-01-08T09:28:14.217Z,23.02
2023-01-08T09:30:42.591Z,20.80
2023-01-08T09:33:11.453Z,25.58
2023-01-08T09:35:39.803Z,26.98
2023-01-08T09:38:09.883Z,29.77
2023-01-08T09:40:44.807Z,22.77
2023-01-08T09:43:18.792Z,26.42
2023-01-08T09:45:53.151Z,23.55
2023-01-08T09:48:25.392Z,27.50
2023-01-08T09:50:54.234Z,27.38
2023-01-08T09:53:24.706Z,26.50
2023-01-08T09:56:09.269Z,26.05
2023-01-08T09:58:41.158Z,25.23
2023-01-08T10:01:14.737Z,27.02
2023-01-08T10:03:46.326Z,29.90
2023-01-08T10:06:16.833Z,26.90
2023-01-08T10:08:47.330Z,20.15
2023-01-08T10:11:16.616Z,26.83
2023-01-08T10:13:49.404Z,26.52
2023-01-08T10:16:26.590Z,30.08
2023-01-08T10:18:55.028Z,28.33
2023-01-08T10:21:30.839Z,32.05
2023-01-08T10:24:00.378Z,26.70
2023-01-08T10:26:30.962Z,24.05
2023-01-08T10:29:16.394Z,30.20
2023-01-08T10:31:51.587Z,34.05
2023-01-08T10:34:27.869Z,27.50
2023-01-08T10:36:57.405Z,33.30
2023-01-08T10:39:28.524Z,30.80
2023-01-08T10:42:04.867Z,33.22
2023-01-08T10:44:35.967Z,29.67
2023-01-08T10:47:06.706Z,31.23
2023-01-08T10:49:39.318Z,26.45
2023-01-08T10:52:23.493Z,31.58
2023-01-08T10:54:53.351Z,24.60
2023-01-08T10:57:24.618Z,27.40
2023-01-08T10:59:53.310Z,32.35
2023-01-08T11:02:31.246Z,26.38
2023-01-08T11:05:01.034Z,22.55
2023-01-08T11:07:30.310Z,23.25
2023-01-08T11:10:00.186Z,28.25
2023-01-08T11:12:35.891Z,19.42
2023-01-08T11:15:07.423Z,25.00
2023-01-08T11:17:36.323Z,25.67
2023-01-08T11:20:20.738Z,29.85
2023-01-08T11:22:49.142Z,23.55
2023-01-08T11:25:25.798Z,23.40
2023-01-08T11:27:56.033Z,33.05
2023-01-08T11:30:27.504Z,22.35
2023-01-08T11:33:02.801Z,21.90
2023-01-08T11:35:38.057Z,24.05
2023-01-08T11:38:08.397Z,25.05
2023-01-08T11:40:45.730Z,22.42
2023-01-08T11:43:22.496Z,26.92
2023-01-08T11:46:02.180Z,26.50
2023-01-08T11:48:50.011Z,22.38
2023-01-08T11:51:36.520Z,20.42
2023-01-08T11:54:16.043Z,24.98
2023-01-08T11:56:57.539Z,26.85
2023-01-08T11:59:33.258Z,26.80
2023-01-08T12:02:13.932Z,24.23
2023-01-08T12:05:16.515Z,32.88
2023-01-08T12:07:52.268Z,30.25
2023-01-08T12:10:26.123Z,34.13
2023-01-08T12:13:10.921Z,29.00
2023-01-08T12:15:52.963Z,34.72
2023-01-08T12:18:34.414Z,35.60
2023-01-08T12:21:14.408Z,27.70
2023-01-08T12:24:00.551Z,36.88
2023-01-08T12:26:38.736Z,31.05
2023-01-08T12:29:25.725Z,29.85
2023-01-08T12:32:10.543Z,37.13
2023-01-08T12:34:47.658Z,38.22
2023-01-08T12:37:22.966Z,31.05
2023-01-08T12:39:57.011Z,26.25
2023-01-08T12:42:31.035Z,26.70
2023-01-08T12:45:03.316Z,30.05
2023-01-08T12:47:36.906Z,33.83
2023-01-08T12:50:21.828Z,26.90
2023-01-08T12:52:57.518Z,37.00
2023-01-08T12:55:41.800Z,36.45
2023-01-08T12:58:22.679Z,40.60
2023-01-08T13:01:01.400Z,36.90
2023-01-08T13:03:31.348Z,41.08
2023-01-08T13:06:11.792Z,32.55
2023-01-08T13:08:43.402Z,37.72
2023-01-08T13:11:12.087Z,33.35
2023-01-08T13:13:45.294Z,31.77
2023-01-08T13:16:24.706Z,29.88
2023-01-08T13:18:55.607Z,35.65
2023-01-08T13:21:36.345Z,31.20
2023-01-08T13:24:08.256Z,32.97
2023-01-08T13:26:37.980Z,31.02
2023-01-08T13:29:37.981Z,31.73
2023-01-08T13:32:24.762Z,31.08
2023-01-08T13:35:20.349Z,32.75
2023-01-08T13:37:50.225Z,33.80
2023-01-08T13:40:38.407Z,29.50
2023-01-08T13:43:13.352Z,27.25
2023-01-08T13:45:42.620Z,30.45
2023-01-08T13:48:24.512Z,27.05
2023-01-08T13:50:53.786Z,30.30
2023-01-08T13:53:22.988Z,30.60
2023-01-08T13:55:59.136Z,31.17
2023-01-08T13:58:31.097Z,32.58
2023-01-08T14:01:01.629Z,31.10
2023-01-08T14:03:35.421Z,35.70
2023-01-08T14:06:08.493Z,37.33
2023-01-08T14:08:36.750Z,34.67
2023-01-08T14:11:06.624Z,30.15
2023-01-08T14:13:38.212Z,38.72
2023-01-08T14:16:08.228Z,30.33
2023-01-08T14:18:41.412Z,31.63
2023-01-08T14:21:10.351Z,31.50
2023-01-08T14:23:41.480Z,27.38
2023-01-08T14:26:17.893Z,30.98
2023-01-08T14:28:53.500Z,29.02
2023-01-08T14:31:23.765Z,33.53
2023-01-08T14:33:54.929Z,28.13
2023-01-08T14:36:24.469Z,31.98
2023-01-08T14:38:52.789Z,31.80
2023-01-08T14:41:53.430Z,31.23
2023-01-08T14:44:29.231Z,33.17
2023-01-08T14:47:04.929Z,28.33
2023-01-08T14:49:40.866Z,36.20
2023-01-08T14:52:12.905Z,37.03
2023-01-08T14:54:41.263Z,38.22
2023-01-08T14:57:13.225Z,33.05
2023-01-08T14:59:41.473Z,33.85
2023-01-08T15:02:23.561Z,38.78
2023-01-08T15:05:02.865Z,38.13
2023-01-08T15:07:31.902Z,30.70
2023-01-08T15:10:02.727Z,36.13
2023-01-08T15:12:32.771Z,36.13
2023-01-08T15:15:11.396Z,35.55
2023-01-08T15:17:41.510Z,36.75
2023-01-08T15:20:19.118Z,36.40
2023-01-08T15:22:48.267Z,34.38
2023-01-08T15:25:20.044Z,42.58
2023-01-08T15:27:55.196Z,33.60
2023-01-08T15:30:30.081Z,32.70
2023-01-08T15:33:07.714Z,33.80
2023-01-08T15:35:37.203Z,33.90
2023-01-08T15:38:05.534Z,33.35
2023-01-08T15:40:33.831Z,31.50
2023-01-08T15:43:12.963Z,35.58
2023-01-08T15:45:43.377Z,34.42
2023-01-08T15:48:12.406Z,35.90
2023-01-08T15:50:44.881Z,34.80
2023-01-08T15:53:18.070Z,41.15
2023-01-08T15:55:47.054Z,41.13
2023-01-08T15:58:17.197Z,38.58
2023-01-08T16:00:47.566Z,32.58
2023-01-08T16:03:17.344Z,38.45
2023-01-08T16:05:47.504Z,39.28
2023-01-08T16:08:15.578Z,33.70
2023-01-08T16:10:44.174Z,38.28
2023-01-08T16:13:12.479Z,40.00
2023-01-08T16:15:41.374Z,39.63
2023-01-08T16:18:09.570Z,43.42
2023-01-08T16:20:38.414Z,41.60
2023-01-08T16:23:08.713Z,39.50
2023-01-08T16:25:40.077Z,35.55
2023-01-08T16:28:08.792Z,37.83
2023-01-08T16:30:36.966Z,34.03
2023-01-08T16:33:05.415Z,34.60
2023-01-08T16:35:34.158Z,31.30
2023-01-08T16:38:02.188Z,39.38
2023-01-08T16:40:31.951Z,28.80
2023-01-08T16:43:03.160Z,30.10
2023-01-08T16:45:31.670Z,27.65
2023-01-08T16:48:00.081Z,21.95
2023-01-08T16:50:28.643Z,27.88
2023-01-08T16:52:56.850Z,21.33
2023-01-08T16:55:24.929Z,21.45
2023-01-08T16:57:55.558Z,19.45
2023-01-08T17:00:24.079Z,20.48
2023-01-08T17:02:52.319Z,17.63
2023-01-08T17:05:20.804Z,17.65
2023-01-08T17:07:51.993Z,22.70
2023-01-08T17:10:20.195Z,17.33
2023-01-08T17:12:48.271Z,16.48
2023-01-08T17:15:18.555Z,23.45
2023-01-08T17:17:47.349Z,21.10
2023-01-08T17:20:16.513Z,19.15
2023-01-08T17:22:44.852Z,17.55
2023-01-08T17:25:14.366Z,23.13
2023-01-08T17:27:43.449Z,18.17
2023-01-08T17:30:14.170Z,24.00
2023-01-08T17:32:43.829Z,16.48
2023-01-08T17:35:12.249Z,25.45
2023-01-08T17:37:40.402Z,26.15
2023-01-08T17:40:10.196Z,20.50
2023-01-08T17:42:39.488Z,23.85
2023-01-08T17:45:08.933Z,26.05
2023-01-08T17:47:37.594Z,32.08
2023-01-08T17:50:07.961Z,30.58
2023-01-08T17:52:38.056Z,29.98
2023-01-08T17:55:07.234Z,31.98
2023-01-08T17:57:35.574Z,35.00
2023-01-08T18:00:05.621Z,28.88
2023-01-08T18:02:34.544Z,33.78
2023-01-08T18:05:02.818Z,36.60
2023-01-08T18:07:34.775Z,33.33
2023-01-08T18:10:03.050Z,38.35
2023-01-08T18:12:32.593Z,28.23
2023-01-08T18:15:00.870Z,29.70
2023-01-08T18:17:31.158Z,35.65
2023-01-08T18:19:59.380Z,39.55
2023-01-08T18:22:27.449Z,31.70
2023-01-08T18:24:57.172Z,33.22
2023-01-08T18:27:25.742Z,35.10
2023-01-08T18:29:54.797Z,38.95
2023-01-08T18:32:26.047Z,33.67
2023-01-08T18:34:55.511Z,40.05
2023-01-08T18:37:23.762Z,41.85
2023-01-08T18:39:52.074Z,36.28
2023-01-08T18:42:27.424Z,32.83
2023-01-08T18:44:56.112Z,32.97
2023-01-08T18:47:24.901Z,35.30
2023-01-08T18:49:54.063Z,36.95
2023-01-08T18:52:22.979Z,33.95
2023-01-08T18:54:51.419Z,32.63
2023-01-08T18:57:19.679Z,32.17
2023-01-08T18:59:50.823Z,41.60
2023-01-08T19:02:21.873Z,36.25
2023-01-08T19:04:50.803Z,37.28
2023-01-08T19:07:18.822Z,32.78
2023-01-08T19:09:47.567Z,37.67
2023-01-08T19:12:15.968Z,37.05
2023-01-08T19:14:46.339Z,31.70
2023-01-08T19:17:16.902Z,28.98
2023-01-08T19:19:45.027Z,33.53
2023-01-08T19:22:13.190Z,29.95
2023-01-08T19:24:41.787Z,32.75
2023-01-08T19:27:10.317Z,33.00
2023-01-08T19:29:38.833Z,29.92
2023-01-08T19:32:07.657Z,32.85
2023-01-08T19:34:37.829Z,31.52
2023-01-08T19:37:06.375Z,34.75
2023-01-08T19:39:35.138Z,28.02
2023-01-08T19:42:20.569Z,33.85
2023-01-08T19:44:49.239Z,29.38
2023-01-08T19:47:17.235Z,31.63
2023-01-08T19:49:47.787Z,29.98
2023-01-08T19:52:16.812Z,33.35
2023-01-08T19:54:45.638Z,31.65
2023-01-08T19:57:14.072Z,36.10
2023-01-08T19:59:42.280Z,33.08
2023-01-08T20:02:11.751Z,35.72
2023-01-08T20:04:41.604Z,31.80
2023-01-08T20:07:11.221Z,31.63
2023-01-08T20:09:39.957Z,29.25
2023-01-08T20:12:08.543Z,32.88
2023-01-08T20:14:37.185Z,30.95
2023-01-08T20:17:05.603Z,35.78
2023-01-08T20:19:34.861Z,30.00
2023-01-08T20:22:03.388Z,35.42
2023-01-08T20:24:33.008Z,32.17
2023-01-08T20:27:01.454Z,30.40
2023-01-08T20:29:29.734Z,31.23
2023-01-08T20:31:59.571Z,34.88
2023-01-08T20:34:28.343Z,27.17
2023-01-08T20:36:57.519Z,26.27
2023-01-08T20:39:26.011Z,33.92
2023-01-08T20:42:03.545Z,28.05
2023-01-08T20:44:32.440Z,34.95
2023-01-08T20:47:00.536Z,32.85
2023-01-08T20:49:29.767Z,36.03
2023-01-08T20:52:00.399Z,27.80
2023-01-08T20:54:30.063Z,34.83
2023-01-08T20:57:01.044Z,34.55
2023-01-08T20:59:29.984Z,35.38
2023-01-08T21:01:58.283Z,34.42
2023-01-08T21:04:26.520Z,33.83
2023-01-08T21:06:54.725Z,32.55
2023-01-08T21:09:23.022Z,33.13
2023-01-08T21:11:51.442Z,34.10
2023-01-08T21:14:21.006Z,34.97
2023-01-08T21:16:49.038Z,35.60
2023-01-08T21:19:17.558Z,32.53
2023-01-08T21:21:45.860Z,37.15
2023-01-08T21:24:14.780Z,33.58
2023-01-08T21:26:46.127Z,30.50
2023-01-08T21:29:14.843Z,32.92
2023-01-08T21:31:44.923Z,33.45
2023-01-08T21:34:14.059Z,34.33
2023-01-08T21:36:42.222Z,31.85
2023-01-08T21:39:11.826Z,30.20
2023-01-08T21:41:57.228Z,32.47
2023-01-08T21:44:44.458Z,31.10
2023-01-08T21:47:16.945Z,31.42
2023-01-08T21:49:46.046Z,32.95
2023-01-08T21:52:32.058Z,34.17
2023-01-08T21:55:00.590Z,33.63
2023-01-08T21:57:29.135Z,30.63
2023-01-08T21:59:58.327Z,37.42
2023-01-08T22:02:27.924Z,37.50
2023-01-08T22:04:56.573Z,31.88
2023-01-08T22:07:24.969Z,34.30
2023-01-08T22:09:53.488Z,42.20
2023-01-08T22:12:22.850Z,31.70
2023-01-08T22:14:53.181Z,34.58
2023-01-08T22:17:21.983Z,36.13
2023-01-08T22:19:51.721Z,36.33
2023-01-08T22:22:20.095Z,34.22
2023-01-08T22:24:48.504Z,36.55
2023-01-08T22:27:17.045Z,39.47
2023-01-08T22:29:45.365Z,36.05
2023-01-08T22:32:13.686Z,36.60
2023-01-08T22:34:42.105Z,36.25
2023-01-08T22:37:11.893Z,43.30
2023-01-08T22:39:40.219Z,41.28
2023-01-08T22:42:08.227Z,41.25
2023-01-08T22:44:36.771Z,36.30
2023-01-08T22:47:06.240Z,37.10
2023-01-08T22:49:34.736Z,49.75
2023-01-08T22:52:03.151Z,42.92
2023-01-08T22:54:33.129Z,41.85
2023-01-08T22:57:01.477Z,47.30
2023-01-08T22:59:29.522Z,43.40
2023-01-08T23:01:57.601Z,44.45
2023-01-08T23:04:26.322Z,42.22
2023-01-08T23:06:54.374Z,39.33
2023-01-08T23:09:22.597Z,39.45
2023-01-08T23:11:53.010Z,45.67
2023-01-08T23:14:21.422Z,43.60
2023-01-08T23:16:49.787Z,40.78
2023-01-08T23:19:18.080Z,43.58
2023-01-08T23:21:46.228Z,40.58
2023-01-08T23:24:14.906Z,44.53
2023-01-08T23:26:43.795Z,35.75
2023-01-08T23:29:13.337Z,36.05
2023-01-08T23:31:44.225Z,41.65
2023-01-08T23:34:13.070Z,34.65
2023-01-08T23:36:43.077Z,41.33
2023-01-08T23:39:11.569Z,34.67
2023-01-08T23:41:40.087Z,38.35
2023-01-08T23:44:16.044Z,36.65
2023-01-08T23:46:45.490Z,41.75
2023-01-08T23:49:13.825Z,37.70
2023-01-08T23:51:42.807Z,40.03
2023-01-08T23:54:11.495Z,41.97
2023-01-08T23:56:39.758Z,36.75
2023-01-08T23:59:08.331Z,39.17
